sensor_id;sensor_type;location;lat;lon;timestamp;pressure;altitude;pressure_sealevel;temperature;humidity
71344;BME280;59146;43.850;25.948;2023-04-01T00:01:51;100182.03;;;11.75;64.48
71344;BME280;59146;43.850;25.948;2023-04-01T00:04:17;100173.25;;;11.51;66.62
71344;BME280;59146;43.850;25.948;2023-04-01T00:06:43;100176.06;;;11.61;66.08
71344;BME280;59146;43.850;25.948;2023-04-01T00:09:09;100120.13;;;11.38;65.80
71344;BME280;59146;43.850;25.948;2023-04-01T00:11:34;100162.38;;;11.57;65.46
71344;BME280;59146;43.850;25.948;2023-04-01T00:14:00;100093.41;;;10.84;67.34
71344;BME280;59146;43.850;25.948;2023-04-01T00:16:25;100115.75;;;11.01;68.14
71344;BME280;59146;43.850;25.948;2023-04-01T00:18:51;100058.06;;;10.79;66.86
71344;BME280;59146;43.850;25.948;2023-04-01T00:21:17;100158.81;;;11.46;65.32
71344;BME280;59146;43.850;25.948;2023-04-01T00:23:43;100140.94;;;11.02;66.69
71344;BME280;59146;43.850;25.948;2023-04-01T00:26:09;100102.16;;;10.71;67.18
71344;BME280;59146;43.850;25.948;2023-04-01T00:28:34;100103.00;;;10.84;67.17
71344;BME280;59146;43.850;25.948;2023-04-01T00:31:05;100097.25;;;10.91;66.60
71344;BME280;59146;43.850;25.948;2023-04-01T00:33:31;100081.91;;;10.74;66.68
71344;BME280;59146;43.850;25.948;2023-04-01T00:36:06;100107.50;;;10.82;66.99
71344;BME280;59146;43.850;25.948;2023-04-01T00:38:31;100111.47;;;11.00;66.37
71344;BME280;59146;43.850;25.948;2023-04-01T00:40:57;100105.94;;;11.04;64.65
71344;BME280;59146;43.850;25.948;2023-04-01T00:43:23;100122.88;;;11.11;64.43
71344;BME280;59146;43.850;25.948;2023-04-01T00:45:49;100130.19;;;11.19;64.60
71344;BME280;59146;43.850;25.948;2023-04-01T00:48:20;100063.69;;;10.85;64.48
71344;BME280;59146;43.850;25.948;2023-04-01T00:50:54;100059.84;;;11.03;63.21
71344;BME280;59146;43.850;25.948;2023-04-01T00:53:23;100069.13;;;11.07;64.08
71344;BME280;59146;43.850;25.948;2023-04-01T00:55:54;100106.22;;;11.12;65.50
71344;BME280;59146;43.850;25.948;2023-04-01T00:58:24;100039.16;;;10.75;66.43
71344;BME280;59146;43.850;25.948;2023-04-01T01:00:51;100037.88;;;10.81;66.82
71344;BME280;59146;43.850;25.948;2023-04-01T01:03:17;100054.31;;;10.58;68.02
71344;BME280;59146;43.850;25.948;2023-04-01T01:05:47;100102.47;;;10.79;70.45
71344;BME280;59146;43.850;25.948;2023-04-01T01:08:32;100016.44;;;10.13;72.31
71344;BME280;59146;43.850;25.948;2023-04-01T01:11:05;100089.81;;;10.60;71.60
71344;BME280;59146;43.850;25.948;2023-04-01T01:13:41;100026.91;;;10.25;70.37
71344;BME280;59146;43.850;25.948;2023-04-01T01:16:24;100073.06;;;10.37;70.39
71344;BME280;59146;43.850;25.948;2023-04-01T01:35:36;100066.97;;;10.24;69.84
71344;BME280;59146;43.850;25.948;2023-04-01T01:38:06;100046.72;;;10.01;71.68
71344;BME280;59146;43.850;25.948;2023-04-01T01:40:34;99890.94;;;9.12;70.34
71344;BME280;59146;43.850;25.948;2023-04-01T01:43:06;100022.59;;;9.85;70.25
71344;BME280;59146;43.850;25.948;2023-04-01T01:45:36;100057.91;;;10.03;70.46
71344;BME280;59146;43.850;25.948;2023-04-01T01:48:04;99987.41;;;9.51;72.51
71344;BME280;59146;43.850;25.948;2023-04-01T01:50:32;100033.38;;;9.67;72.61
71344;BME280;59146;43.850;25.948;2023-04-01T01:53:06;100035.19;;;9.52;74.88
71344;BME280;59146;43.850;25.948;2023-04-01T01:55:35;100048.13;;;9.53;73.26
71344;BME280;59146;43.850;25.948;2023-04-01T02:00:53;99989.81;;;9.28;73.53
71344;BME280;59146;43.850;25.948;2023-04-01T02:03:21;99985.72;;;9.24;74.70
71344;BME280;59146;43.850;25.948;2023-04-01T02:05:50;99955.81;;;8.89;75.20
71344;BME280;59146;43.850;25.948;2023-04-01T02:08:29;100024.97;;;9.35;76.07
71344;BME280;59146;43.850;25.948;2023-04-01T02:11:02;99965.31;;;8.90;77.36
71344;BME280;59146;43.850;25.948;2023-04-01T02:16:34;100022.94;;;9.26;77.47
71344;BME280;59146;43.850;25.948;2023-04-01T02:19:03;100011.59;;;9.27;75.11
71344;BME280;59146;43.850;25.948;2023-04-01T02:21:32;100026.66;;;9.36;76.29
71344;BME280;59146;43.850;25.948;2023-04-01T02:24:00;100023.66;;;9.42;77.22
71344;BME280;59146;43.850;25.948;2023-04-01T02:26:27;99965.81;;;9.23;76.65
71344;BME280;59146;43.850;25.948;2023-04-01T02:28:54;99964.72;;;9.13;74.27
71344;BME280;59146;43.850;25.948;2023-04-01T02:31:21;99967.72;;;9.07;73.90
71344;BME280;59146;43.850;25.948;2023-04-01T02:33:47;99945.31;;;8.90;74.72
71344;BME280;59146;43.850;25.948;2023-04-01T02:36:14;100004.63;;;9.27;75.70
71344;BME280;59146;43.850;25.948;2023-04-01T02:38:41;99964.34;;;9.19;74.90
71344;BME280;59146;43.850;25.948;2023-04-01T02:41:07;99994.19;;;9.54;72.13
71344;BME280;59146;43.850;25.948;2023-04-01T02:43:33;99968.69;;;9.18;72.98
71344;BME280;59146;43.850;25.948;2023-04-01T02:45:58;99939.81;;;8.95;73.35
71344;BME280;59146;43.850;25.948;2023-04-01T02:48:24;99959.13;;;9.19;72.73
71344;BME280;59146;43.850;25.948;2023-04-01T02:50:50;99984.75;;;9.39;72.07
71344;BME280;59146;43.850;25.948;2023-04-01T02:53:16;99986.56;;;9.51;72.57
71344;BME280;59146;43.850;25.948;2023-04-01T02:55:41;99976.59;;;9.31;72.77
71344;BME280;59146;43.850;25.948;2023-04-01T02:58:07;99967.47;;;9.24;72.40
71344;BME280;59146;43.850;25.948;2023-04-01T03:00:32;99948.88;;;9.16;74.13
71344;BME280;59146;43.850;25.948;2023-04-01T03:02:58;99871.31;;;8.66;75.59
71344;BME280;59146;43.850;25.948;2023-04-01T03:05:23;99971.19;;;9.34;74.12
71344;BME280;59146;43.850;25.948;2023-04-01T03:07:49;99913.97;;;8.92;72.89
71344;BME280;59146;43.850;25.948;2023-04-01T03:10:15;99922.06;;;8.87;73.17
71344;BME280;59146;43.850;25.948;2023-04-01T03:12:40;99923.44;;;8.93;73.80
71344;BME280;59146;43.850;25.948;2023-04-01T03:15:06;99939.63;;;8.98;74.58
71344;BME280;59146;43.850;25.948;2023-04-01T03:17:32;99963.63;;;9.03;74.76
71344;BME280;59146;43.850;25.948;2023-04-01T03:19:57;99984.47;;;9.03;74.26
71344;BME280;59146;43.850;25.948;2023-04-01T03:22:23;99912.16;;;8.37;76.16
71344;BME280;59146;43.850;25.948;2023-04-01T03:24:48;99912.16;;;8.37;76.82
71344;BME280;59146;43.850;25.948;2023-04-01T03:27:14;99956.97;;;8.70;76.94
71344;BME280;59146;43.850;25.948;2023-04-01T03:29:39;99904.97;;;8.13;77.58
71344;BME280;59146;43.850;25.948;2023-04-01T03:32:05;99953.84;;;8.22;78.52
71344;BME280;59146;43.850;25.948;2023-04-01T03:34:31;99983.34;;;8.36;78.60
71344;BME280;59146;43.850;25.948;2023-04-01T03:36:57;99966.44;;;8.29;78.35
71344;BME280;59146;43.850;25.948;2023-04-01T03:39:23;99961.31;;;8.28;77.06
71344;BME280;59146;43.850;25.948;2023-04-01T03:41:49;99947.13;;;8.33;74.96
71344;BME280;59146;43.850;25.948;2023-04-01T03:44:14;99960.50;;;8.55;74.15
71344;BME280;59146;43.850;25.948;2023-04-01T03:46:40;99890.56;;;8.21;73.97
71344;BME280;59146;43.850;25.948;2023-04-01T03:49:09;99892.25;;;8.22;74.69
71344;BME280;59146;43.850;25.948;2023-04-01T03:51:42;99944.31;;;8.64;74.23
71344;BME280;59146;43.850;25.948;2023-04-01T03:54:09;99965.84;;;8.95;73.72
71344;BME280;59146;43.850;25.948;2023-04-01T03:56:35;99925.50;;;8.73;73.68
71344;BME280;59146;43.850;25.948;2023-04-01T03:59:03;99907.84;;;8.78;74.08
71344;BME280;59146;43.850;25.948;2023-04-01T04:01:28;99898.72;;;8.71;74.47
71344;BME280;59146;43.850;25.948;2023-04-01T04:03:55;99840.31;;;8.35;74.78
71344;BME280;59146;43.850;25.948;2023-04-01T04:06:21;99962.50;;;9.07;75.17
71344;BME280;59146;43.850;25.948;2023-04-01T04:08:47;99905.66;;;8.99;74.09
71344;BME280;59146;43.850;25.948;2023-04-01T04:11:13;99880.63;;;8.97;73.53
71344;BME280;59146;43.850;25.948;2023-04-01T04:13:39;99898.06;;;9.23;72.82
71344;BME280;59146;43.850;25.948;2023-04-01T04:16:05;99867.28;;;9.15;72.28
71344;BME280;59146;43.850;25.948;2023-04-01T04:18:30;99878.34;;;9.19;72.25
71344;BME280;59146;43.850;25.948;2023-04-01T04:20:56;99891.19;;;9.34;72.03
71344;BME280;59146;43.850;25.948;2023-04-01T04:23:21;99893.66;;;9.50;71.83
71344;BME280;59146;43.850;25.948;2023-04-01T04:25:58;99905.44;;;9.55;70.90
71344;BME280;59146;43.850;25.948;2023-04-01T04:28:25;99931.16;;;9.74;71.71
71344;BME280;59146;43.850;25.948;2023-04-01T04:30:51;99932.97;;;9.86;71.03
71344;BME280;59146;43.850;25.948;2023-04-01T04:33:17;99943.72;;;9.94;71.09
71344;BME280;59146;43.850;25.948;2023-04-01T04:35:43;99938.13;;;9.61;75.20
71344;BME280;59146;43.850;25.948;2023-04-01T04:38:08;99937.44;;;9.72;74.75
71344;BME280;59146;43.850;25.948;2023-04-01T04:40:36;99946.50;;;9.79;74.64
71344;BME280;59146;43.850;25.948;2023-04-01T04:43:02;99882.09;;;9.54;73.34
71344;BME280;59146;43.850;25.948;2023-04-01T04:45:28;99879.41;;;9.81;73.24
71344;BME280;59146;43.850;25.948;2023-04-01T04:47:53;99840.97;;;9.45;73.57
71344;BME280;59146;43.850;25.948;2023-04-01T04:50:19;99874.84;;;9.72;72.49
71344;BME280;59146;43.850;25.948;2023-04-01T04:52:44;99866.81;;;9.87;72.19
71344;BME280;59146;43.850;25.948;2023-04-01T04:55:10;99907.56;;;10.27;71.08
71344;BME280;59146;43.850;25.948;2023-04-01T04:57:35;99917.00;;;10.66;68.30
71344;BME280;59146;43.850;25.948;2023-04-01T05:00:01;99872.75;;;10.52;67.24
71344;BME280;59146;43.850;25.948;2023-04-01T05:02:26;99771.31;;;9.97;66.87
71344;BME280;59146;43.850;25.948;2023-04-01T05:04:51;99898.56;;;10.93;66.47
71344;BME280;59146;43.850;25.948;2023-04-01T05:07:17;99895.34;;;11.13;64.74
71344;BME280;59146;43.850;25.948;2023-04-01T05:09:42;99854.13;;;11.16;64.95
71344;BME280;59146;43.850;25.948;2023-04-01T05:12:08;99912.97;;;11.46;64.98
71344;BME280;59146;43.850;25.948;2023-04-01T05:14:33;99889.75;;;11.30;65.88
71344;BME280;59146;43.850;25.948;2023-04-01T05:16:58;99809.50;;;10.96;66.21
71344;BME280;59146;43.850;25.948;2023-04-01T05:19:24;99890.34;;;11.57;65.16
71344;BME280;59146;43.850;25.948;2023-04-01T05:21:49;99895.19;;;11.74;63.67
71344;BME280;59146;43.850;25.948;2023-04-01T05:24:15;99857.78;;;11.38;64.61
71344;BME280;59146;43.850;25.948;2023-04-01T05:26:40;99912.28;;;11.67;67.39
71344;BME280;59146;43.850;25.948;2023-04-01T05:29:06;99921.09;;;11.77;68.71
71344;BME280;59146;43.850;25.948;2023-04-01T05:31:31;99888.50;;;11.70;67.51
71344;BME280;59146;43.850;25.948;2023-04-01T05:33:57;99917.03;;;11.73;66.52
71344;BME280;59146;43.850;25.948;2023-04-01T05:36:22;99864.19;;;11.34;67.37
71344;BME280;59146;43.850;25.948;2023-04-01T05:38:48;99735.53;;;10.72;66.68
71344;BME280;59146;43.850;25.948;2023-04-01T05:41:14;99919.03;;;12.05;66.55
71344;BME280;59146;43.850;25.948;2023-04-01T05:43:41;99903.59;;;12.13;66.27
71344;BME280;59146;43.850;25.948;2023-04-01T05:46:07;99892.88;;;12.16;64.69
71344;BME280;59146;43.850;25.948;2023-04-01T05:48:33;99889.31;;;12.06;64.23
71344;BME280;59146;43.850;25.948;2023-04-01T05:51:00;99835.97;;;11.84;64.57
71344;BME280;59146;43.850;25.948;2023-04-01T05:53:26;99846.72;;;12.26;62.65
71344;BME280;59146;43.850;25.948;2023-04-01T05:55:51;99878.00;;;12.83;60.86
71344;BME280;59146;43.850;25.948;2023-04-01T05:58:16;99874.97;;;13.09;59.57
71344;BME280;59146;43.850;25.948;2023-04-01T06:00:42;99849.47;;;13.00;59.23
71344;BME280;59146;43.850;25.948;2023-04-01T06:03:07;99822.09;;;13.04;58.73
71344;BME280;59146;43.850;25.948;2023-04-01T06:05:43;99858.31;;;13.63;57.48
71344;BME280;59146;43.850;25.948;2023-04-01T06:08:17;99882.78;;;14.04;55.90
71344;BME280;59146;43.850;25.948;2023-04-01T06:13:26;99864.13;;;13.87;58.14
71344;BME280;59146;43.850;25.948;2023-04-01T06:18:47;99879.16;;;14.26;56.13
71344;BME280;59146;43.850;25.948;2023-04-01T06:21:22;99872.94;;;14.27;55.76
71344;BME280;59146;43.850;25.948;2023-04-01T06:24:03;99827.72;;;13.73;57.15
71344;BME280;59146;43.850;25.948;2023-04-01T06:26:58;99878.41;;;13.94;57.46
71344;BME280;59146;43.850;25.948;2023-04-01T06:35:31;99852.75;;;13.24;58.91
71344;BME280;59146;43.850;25.948;2023-04-01T06:44:05;99895.94;;;13.09;61.68
71344;BME280;59146;43.850;25.948;2023-04-01T06:46:46;99861.69;;;12.57;61.73
71344;BME280;59146;43.850;25.948;2023-04-01T06:52:58;99895.69;;;13.01;61.70
71344;BME280;59146;43.850;25.948;2023-04-01T06:54:57;99893.22;;;13.11;61.46
71344;BME280;59146;43.850;25.948;2023-04-01T06:57:34;99827.19;;;12.52;62.55
71344;BME280;59146;43.850;25.948;2023-04-01T07:00:13;99806.94;;;12.54;62.35
71344;BME280;59146;43.850;25.948;2023-04-01T07:02:46;99890.59;;;13.00;62.73
71344;BME280;59146;43.850;25.948;2023-04-01T07:05:14;99878.13;;;12.81;62.89
71344;BME280;59146;43.850;25.948;2023-04-01T07:07:47;99874.50;;;12.93;64.00
71344;BME280;59146;43.850;25.948;2023-04-01T07:10:19;99894.75;;;13.02;63.35
71344;BME280;59146;43.850;25.948;2023-04-01T07:12:54;99879.53;;;12.74;63.90
71344;BME280;59146;43.850;25.948;2023-04-01T07:15:33;99896.09;;;12.86;64.28
71344;BME280;59146;43.850;25.948;2023-04-01T07:21:22;99849.31;;;12.59;64.56
71344;BME280;59146;43.850;25.948;2023-04-01T07:23:50;99888.72;;;12.80;63.40
71344;BME280;59146;43.850;25.948;2023-04-01T07:26:21;99798.63;;;12.27;65.09
71344;BME280;59146;43.850;25.948;2023-04-01T07:28:48;99903.59;;;13.12;64.06
71344;BME280;59146;43.850;25.948;2023-04-01T07:34:25;99909.66;;;13.02;63.89
71344;BME280;59146;43.850;25.948;2023-04-01T07:37:16;99836.97;;;12.50;63.57
71344;BME280;59146;43.850;25.948;2023-04-01T07:45:30;99751.03;;;12.33;62.91
71344;BME280;59146;43.850;25.948;2023-04-01T07:51:31;99894.13;;;13.84;62.75
71344;BME280;59146;43.850;25.948;2023-04-01T07:54:06;99897.56;;;13.85;63.51
71344;BME280;59146;43.850;25.948;2023-04-01T07:56:51;99882.03;;;14.23;61.87
71344;BME280;59146;43.850;25.948;2023-04-01T07:59:35;99857.00;;;14.40;60.46
71344;BME280;59146;43.850;25.948;2023-04-01T08:02:20;99867.44;;;14.60;58.48
71344;BME280;59146;43.850;25.948;2023-04-01T08:07:29;99878.59;;;14.92;58.04
71344;BME280;59146;43.850;25.948;2023-04-01T08:10:06;99874.03;;;14.94;58.34
71344;BME280;59146;43.850;25.948;2023-04-01T08:20:56;99774.16;;;14.36;57.04
71344;BME280;59146;43.850;25.948;2023-04-01T08:23:27;99856.50;;;15.24;55.96
71344;BME280;59146;43.850;25.948;2023-04-01T08:28:50;99855.69;;;15.61;55.16
71344;BME280;59146;43.850;25.948;2023-04-01T08:33:58;99814.81;;;15.67;53.89
71344;BME280;59146;43.850;25.948;2023-04-01T08:36:33;99848.97;;;16.05;52.73
71344;BME280;59146;43.850;25.948;2023-04-01T08:39:07;99854.66;;;16.01;51.88
71344;BME280;59146;43.850;25.948;2023-04-01T08:47:19;99859.59;;;15.48;55.53
71344;BME280;59146;43.850;25.948;2023-04-01T08:55:47;99839.78;;;16.19;52.01
71344;BME280;59146;43.850;25.948;2023-04-01T09:20:35;99838.41;;;16.15;52.63
71344;BME280;59146;43.850;25.948;2023-04-01T09:28:52;99848.63;;;16.64;52.03
71344;BME280;59146;43.850;25.948;2023-04-01T09:31:21;99850.16;;;16.84;51.26
71344;BME280;59146;43.850;25.948;2023-04-01T09:36:47;99848.44;;;16.93;51.18
71344;BME280;59146;43.850;25.948;2023-04-01T09:39:42;99835.63;;;16.80;51.40
71344;BME280;59146;43.850;25.948;2023-04-01T09:42:29;99844.44;;;16.89;51.67
71344;BME280;59146;43.850;25.948;2023-04-01T09:45:01;99786.50;;;16.79;51.40
71344;BME280;59146;43.850;25.948;2023-04-01T09:47:51;99831.13;;;16.90;50.32
71344;BME280;59146;43.850;25.948;2023-04-01T09:50:35;99794.63;;;16.68;51.72
71344;BME280;59146;43.850;25.948;2023-04-01T09:53:53;99822.78;;;17.30;49.35
71344;BME280;59146;43.850;25.948;2023-04-01T10:05:41;99811.28;;;18.00;50.17
71344;BME280;59146;43.850;25.948;2023-04-01T10:08:50;99781.50;;;17.90;49.49
71344;BME280;59146;43.850;25.948;2023-04-01T10:14:12;99791.38;;;18.13;48.71
71344;BME280;59146;43.850;25.948;2023-04-01T10:36:54;99738.72;;;18.20;45.58
71344;BME280;59146;43.850;25.948;2023-04-01T10:42:41;99784.59;;;17.42;46.38
71344;BME280;59146;43.850;25.948;2023-04-01T10:48:20;99750.38;;;17.32;47.13
71344;BME280;59146;43.850;25.948;2023-04-01T11:21:50;99734.88;;;16.77;51.43
71344;BME280;59146;43.850;25.948;2023-04-01T11:32:57;99715.53;;;17.29;50.21
71344;BME280;59146;43.850;25.948;2023-04-01T11:35:55;99668.59;;;17.15;50.28
71344;BME280;59146;43.850;25.948;2023-04-01T11:43:46;99702.22;;;17.82;49.83
71344;BME280;59146;43.850;25.948;2023-04-01T11:53:23;99703.72;;;17.84;50.87
71344;BME280;59146;43.850;25.948;2023-04-01T11:56:00;99701.88;;;18.26;49.26
71344;BME280;59146;43.850;25.948;2023-04-01T12:01:30;99676.88;;;18.47;47.65
71344;BME280;59146;43.850;25.948;2023-04-01T12:07:03;99695.56;;;18.61;47.73
71344;BME280;59146;43.850;25.948;2023-04-01T12:12:35;99672.25;;;18.73;47.84
71344;BME280;59146;43.850;25.948;2023-04-01T12:17:45;99681.69;;;18.59;47.79
71344;BME280;59146;43.850;25.948;2023-04-01T12:28:21;99678.53;;;18.64;47.45
71344;BME280;59146;43.850;25.948;2023-04-01T12:31:02;99659.19;;;18.47;47.71
71344;BME280;59146;43.850;25.948;2023-04-01T12:44:41;99687.44;;;18.55;48.40
71344;BME280;59146;43.850;25.948;2023-04-01T12:50:10;99640.66;;;17.97;48.74
71344;BME280;59146;43.850;25.948;2023-04-01T12:55:37;99606.63;;;17.78;49.37
71344;BME280;59146;43.850;25.948;2023-04-01T13:00:39;99677.84;;;18.04;49.86
71344;BME280;59146;43.850;25.948;2023-04-01T13:04:09;99694.56;;;18.12;50.48
71344;BME280;59146;43.850;25.948;2023-04-01T13:25:54;99693.38;;;17.22;53.13
71344;BME280;59146;43.850;25.948;2023-04-01T13:28:30;99627.53;;;16.95;53.48
71344;BME280;59146;43.850;25.948;2023-04-01T13:40:11;99681.50;;;17.43;52.29
71344;BME280;59146;43.850;25.948;2023-04-01T13:50:04;99675.56;;;17.24;52.35
71344;BME280;59146;43.850;25.948;2023-04-01T13:58:14;99615.47;;;16.66;52.70
71344;BME280;59146;43.850;25.948;2023-04-01T14:06:53;99636.25;;;16.69;53.82
71344;BME280;59146;43.850;25.948;2023-04-01T14:09:41;99622.31;;;16.59;54.21
71344;BME280;59146;43.850;25.948;2023-04-01T14:12:29;99679.78;;;16.91;54.54
71344;BME280;59146;43.850;25.948;2023-04-01T14:20:26;99664.13;;;16.72;56.47
71344;BME280;59146;43.850;25.948;2023-04-01T14:25:58;99667.09;;;16.69;56.35
71344;BME280;59146;43.850;25.948;2023-04-01T14:40:12;99635.25;;;16.18;59.03
71344;BME280;59146;43.850;25.948;2023-04-01T14:47:56;99555.69;;;15.52;59.96
71344;BME280;59146;43.850;25.948;2023-04-01T14:50:25;99588.97;;;15.70;59.22
71344;BME280;59146;43.850;25.948;2023-04-01T14:58:21;99624.81;;;15.99;59.77
71344;BME280;59146;43.850;25.948;2023-04-01T15:12:07;99644.47;;;15.40;63.38
71344;BME280;59146;43.850;25.948;2023-04-01T15:17:44;99615.94;;;14.89;64.76
71344;BME280;59146;43.850;25.948;2023-04-01T15:28:40;99558.56;;;14.37;64.38
71344;BME280;59146;43.850;25.948;2023-04-01T15:31:26;99635.59;;;14.76;64.90
71344;BME280;59146;43.850;25.948;2023-04-01T15:36:44;99660.78;;;14.69;65.21
71344;BME280;59146;43.850;25.948;2023-04-01T15:39:22;99622.22;;;14.41;65.41
71344;BME280;59146;43.850;25.948;2023-04-01T15:42:08;99676.69;;;14.67;65.78
71344;BME280;59146;43.850;25.948;2023-04-01T16:12:15;99642.94;;;13.85;72.56
71344;BME280;59146;43.850;25.948;2023-04-01T16:22:55;99685.59;;;14.07;72.26
71344;BME280;59146;43.850;25.948;2023-04-01T16:25:38;99704.13;;;14.25;72.51
71344;BME280;59146;43.850;25.948;2023-04-01T16:33:21;99659.38;;;13.87;73.61
71344;BME280;59146;43.850;25.948;2023-04-01T16:35:55;99647.88;;;13.78;73.97
71344;BME280;59146;43.850;25.948;2023-04-01T16:38:32;99707.22;;;14.00;75.23
71344;BME280;59146;43.850;25.948;2023-04-01T16:43:44;99668.59;;;13.41;77.37
71344;BME280;59146;43.850;25.948;2023-04-01T16:56:52;99677.72;;;13.17;80.67
71344;BME280;59146;43.850;25.948;2023-04-01T17:02:25;99700.66;;;13.24;80.53
71344;BME280;59146;43.850;25.948;2023-04-01T17:05:04;99660.44;;;13.14;79.61
71344;BME280;59146;43.850;25.948;2023-04-01T17:15:34;99697.19;;;13.24;81.29
71344;BME280;59146;43.850;25.948;2023-04-01T17:23:48;99693.41;;;12.75;83.57
71344;BME280;59146;43.850;25.948;2023-04-01T17:28:50;99533.16;;;11.75;83.75
71344;BME280;59146;43.850;25.948;2023-04-01T17:42:04;99701.97;;;12.77;84.23
71344;BME280;59146;43.850;25.948;2023-04-01T17:44:44;99700.22;;;12.67;84.53
71344;BME280;59146;43.850;25.948;2023-04-01T17:52:37;99692.53;;;12.43;85.52
71344;BME280;59146;43.850;25.948;2023-04-01T17:58:17;99704.31;;;12.49;84.38
71344;BME280;59146;43.850;25.948;2023-04-01T18:01:02;99701.81;;;12.47;84.79
71344;BME280;59146;43.850;25.948;2023-04-01T18:06:19;99648.06;;;12.21;83.36
71344;BME280;59146;43.850;25.948;2023-04-01T18:24:45;99638.50;;;12.00;85.61
71344;BME280;59146;43.850;25.948;2023-04-01T18:27:28;99707.44;;;12.32;86.18
71344;BME280;59146;43.850;25.948;2023-04-01T18:30:03;99718.63;;;12.34;86.23
71344;BME280;59146;43.850;25.948;2023-04-01T18:32:42;99578.25;;;11.46;85.56
71344;BME280;59146;43.850;25.948;2023-04-01T18:40:37;99738.16;;;12.30;85.52
71344;BME280;59146;43.850;25.948;2023-04-01T18:45:54;99667.78;;;11.82;85.06
71344;BME280;59146;43.850;25.948;2023-04-01T18:48:51;99755.28;;;12.34;84.99
71344;BME280;59146;43.850;25.948;2023-04-01T18:51:23;99694.31;;;11.89;85.35
71344;BME280;59146;43.850;25.948;2023-04-01T18:56:43;99746.66;;;12.00;86.26
71344;BME280;59146;43.850;25.948;2023-04-01T18:59:35;99760.19;;;12.05;86.30
71344;BME280;59146;43.850;25.948;2023-04-01T19:02:36;99731.53;;;11.81;86.27
71344;BME280;59146;43.850;25.948;2023-04-01T19:05:17;99786.50;;;12.04;86.09
71344;BME280;59146;43.850;25.948;2023-04-01T19:07:49;99803.84;;;12.05;86.62
71344;BME280;59146;43.850;25.948;2023-04-01T19:10:22;99809.38;;;12.13;86.67
71344;BME280;59146;43.850;25.948;2023-04-01T19:16:10;99801.47;;;12.24;86.63
71344;BME280;59146;43.850;25.948;2023-04-01T19:32:55;99808.00;;;12.40;85.52
71344;BME280;59146;43.850;25.948;2023-04-01T19:35:36;99810.75;;;12.39;85.25
71344;BME280;59146;43.850;25.948;2023-04-01T19:38:14;99743.19;;;11.88;86.48
71344;BME280;59146;43.850;25.948;2023-04-01T19:54:19;99766.63;;;11.90;89.02
71344;BME280;59146;43.850;25.948;2023-04-01T20:04:38;99802.69;;;12.20;88.35
71344;BME280;59146;43.850;25.948;2023-04-01T20:07:31;99827.56;;;12.25;87.44
71344;BME280;59146;43.850;25.948;2023-04-01T20:10:16;99767.56;;;11.78;85.95
71344;BME280;59146;43.850;25.948;2023-04-01T20:13:05;99819.56;;;12.05;85.70
71344;BME280;59146;43.850;25.948;2023-04-01T20:15:37;99828.50;;;12.02;84.74
71344;BME280;59146;43.850;25.948;2023-04-01T20:21:46;99735.66;;;11.51;85.88
71344;BME280;59146;43.850;25.948;2023-04-01T20:23:58;99799.69;;;11.91;86.54
71344;BME280;59146;43.850;25.948;2023-04-01T20:26:40;99801.72;;;11.76;86.31
71344;BME280;59146;43.850;25.948;2023-04-01T20:40:33;99828.56;;;11.67;82.24
71344;BME280;59146;43.850;25.948;2023-04-01T20:48:36;99831.81;;;11.47;80.35
71344;BME280;59146;43.850;25.948;2023-04-01T20:53:38;99797.16;;;10.98;78.66
71344;BME280;59146;43.850;25.948;2023-04-01T20:56:21;99836.63;;;11.06;78.69
71344;BME280;59146;43.850;25.948;2023-04-01T21:12:30;99852.25;;;11.18;80.23
71344;BME280;59146;43.850;25.948;2023-04-01T21:17:58;99865.41;;;10.93;80.20
71344;BME280;59146;43.850;25.948;2023-04-01T21:26:33;99869.94;;;11.15;77.25
71344;BME280;59146;43.850;25.948;2023-04-01T21:45:20;99816.19;;;10.27;76.83
71344;BME280;59146;43.850;25.948;2023-04-01T22:05:38;99772.19;;;9.73;79.04
71344;BME280;59146;43.850;25.948;2023-04-01T22:08:30;99859.63;;;10.16;79.99
71344;BME280;59146;43.850;25.948;2023-04-01T22:13:49;99861.47;;;10.01;80.59
71344;BME280;59146;43.850;25.948;2023-04-01T22:21:58;99866.81;;;9.87;81.67
71344;BME280;59146;43.850;25.948;2023-04-01T22:24:34;99760.81;;;9.36;81.62
71344;BME280;59146;43.850;25.948;2023-04-01T22:27:35;99781.34;;;9.53;81.25
71344;BME280;59146;43.850;25.948;2023-04-01T22:30:20;99837.91;;;9.90;81.38
71344;BME280;59146;43.850;25.948;2023-04-01T22:35:40;99870.72;;;10.19;81.27
71344;BME280;59146;43.850;25.948;2023-04-01T22:41:08;99790.00;;;9.53;81.96
71344;BME280;59146;43.850;25.948;2023-04-01T22:43:43;99842.28;;;9.90;82.43
71344;BME280;59146;43.850;25.948;2023-04-01T22:52:31;99864.19;;;10.00;82.21
71344;BME280;59146;43.850;25.948;2023-04-01T22:54:43;99783.75;;;9.43;82.28
71344;BME280;59146;43.850;25.948;2023-04-01T23:02:37;99870.38;;;9.86;83.00
71344;BME280;59146;43.850;25.948;2023-04-01T23:05:10;99819.09;;;9.60;82.35
71344;BME280;59146;43.850;25.948;2023-04-01T23:13:01;99813.28;;;9.56;82.18
71344;BME280;59146;43.850;25.948;2023-04-01T23:15:28;99857.50;;;9.83;82.28
71344;BME280;59146;43.850;25.948;2023-04-01T23:18:27;99854.91;;;9.96;81.48
71344;BME280;59146;43.850;25.948;2023-04-01T23:28:53;99870.88;;;10.04;81.73
71344;BME280;59146;43.850;25.948;2023-04-01T23:33:59;99804.47;;;9.45;83.01
71344;BME280;59146;43.850;25.948;2023-04-01T23:36:25;99865.94;;;9.61;83.64
71344;BME280;59146;43.850;25.948;2023-04-01T23:38:52;99810.34;;;9.48;83.71
71344;BME280;59146;43.850;25.948;2023-04-01T23:41:29;99844.56;;;9.69;83.34
71344;BME280;59146;43.850;25.948;2023-04-01T23:44:09;99865.66;;;9.79;83.58
71344;BME280;59146;43.850;25.948;2023-04-01T23:46:37;99876.09;;;9.91;83.46
71344;BME280;59146;43.850;25.948;2023-04-01T23:49:09;99862.19;;;9.66;83.92
71344;BME280;59146;43.850;25.948;2023-04-01T23:51:46;99835.78;;;9.57;84.05